createdAt,value
2016-06-03T00:00:53.062Z,60.78
2016-06-03T00:01:53.096Z,60.91
2016-06-03T00:02:53.115Z,60.91
2016-06-03T00:03:53.148Z,60.88
2016-06-03T00:04:53.166Z,60.98
2016-06-03T00:05:53.184Z,60.98
2016-06-03T00:06:53.219Z,60.82
2016-06-03T00:07:53.081Z,61.2
2016-06-03T00:08:53.286Z,60.88
2016-06-03T00:09:53.289Z,61.17
2016-06-03T00:10:53.322Z,60.78
2016-06-03T00:11:53.342Z,61.17
2016-06-03T00:12:53.375Z,61.17
2016-06-03T00:13:53.394Z,61.17
2016-06-03T00:14:53.428Z,60.78
2016-06-03T00:15:53.446Z,60.78
2016-06-03T00:16:53.464Z,60.78
2016-06-03T00:17:53.499Z,60.78
2016-06-03T00:18:53.517Z,61.08
2016-06-03T00:19:53.551Z,60.98
2016-06-03T00:20:53.568Z,61.46
2016-06-03T00:21:53.603Z,60.88
2016-06-03T00:22:53.621Z,61.08
2016-06-03T00:23:53.640Z,60.6
2016-06-03T00:24:53.532Z,61.36
2016-06-03T00:25:53.691Z,61.36
2016-06-03T00:26:53.726Z,61.17
2016-06-03T00:27:53.743Z,61.17
2016-06-03T00:28:53.763Z,60.69
2016-06-03T00:29:53.796Z,60.5
2016-06-03T00:30:53.845Z,61.36
2016-06-03T00:31:53.849Z,61.36
2016-06-03T00:32:53.867Z,61.17
2016-06-03T00:33:53.901Z,61.17
2016-06-03T00:34:53.919Z,61.17
2016-06-03T00:35:53.953Z,60.98
2016-06-03T00:36:53.971Z,61.08
2016-06-03T00:37:54.005Z,61.17
2016-06-03T00:38:54.023Z,61.08
2016-06-03T00:39:54.042Z,60.98
2016-06-03T00:40:54.420Z,61.17
2016-06-03T00:41:54.095Z,60.88
2016-06-03T00:42:54.128Z,60.88
2016-06-03T00:43:54.146Z,60.88
2016-06-03T00:44:54.164Z,60.88
2016-06-03T00:45:54.199Z,60.98
2016-06-03T00:46:54.232Z,61.08
2016-06-03T00:47:54.251Z,61.08
2016-06-03T00:48:54.269Z,60.98
2016-06-03T00:49:54.303Z,61.65
2016-06-03T00:50:54.368Z,61.36
2016-06-03T00:51:54.371Z,60.88
2016-06-03T00:52:54.374Z,61.27
2016-06-03T00:53:54.391Z,61.55
2016-06-03T00:54:54.691Z,61.36
2016-06-03T00:55:54.444Z,61.46
2016-06-03T00:56:54.479Z,61.46
2016-06-03T00:57:54.497Z,61.27
2016-06-03T00:58:54.530Z,61.17
2016-06-03T00:59:54.564Z,61.27
2016-06-03T01:00:54.582Z,61.36
2016-06-03T01:01:54.632Z,61.17
2016-06-03T01:02:54.620Z,61.55
2016-06-03T01:03:54.653Z,61.55
2016-06-03T01:04:54.671Z,61.46
2016-06-03T01:05:54.706Z,61.17
2016-06-03T01:06:54.740Z,61.65
2016-06-03T01:07:54.587Z,61.46
2016-06-03T01:08:54.776Z,61.65
2016-06-03T01:09:54.654Z,61.55
2016-06-03T01:10:54.828Z,61.65
2016-06-03T01:11:54.862Z,61.55
2016-06-03T01:12:54.880Z,61.46
2016-06-03T01:13:54.899Z,61.55
2016-06-03T01:14:54.917Z,61.46
2016-06-03T01:15:54.951Z,61.65
2016-06-03T01:16:54.969Z,61.55
2016-06-03T01:17:55.003Z,61.55
2016-06-03T01:18:55.022Z,61.65
2016-06-03T01:19:55.055Z,61.55
2016-06-03T01:20:55.089Z,61.65
2016-06-03T01:21:55.108Z,61.55
2016-06-03T01:22:55.142Z,61.46
2016-06-03T01:23:55.144Z,61.65
2016-06-03T01:24:55.022Z,61.46
2016-06-03T01:25:55.197Z,61.65
2016-06-03T01:26:55.215Z,61.65
2016-06-03T01:27:55.280Z,61.46
2016-06-03T01:28:55.267Z,61.65
2016-06-03T01:29:55.301Z,61.55
2016-06-03T01:30:55.335Z,61.55
2016-06-03T01:31:55.354Z,61.55
2016-06-03T01:32:55.371Z,61.55
2016-06-03T01:33:55.406Z,61.46
2016-06-03T01:34:55.456Z,61.46
2016-06-03T01:35:55.458Z,61.46
2016-06-03T01:36:55.476Z,61.55
2016-06-03T01:37:55.495Z,61.65
2016-06-03T01:38:55.528Z,61.46
2016-06-03T01:39:55.657Z,61.55
2016-06-03T01:40:55.425Z,61.65
2016-06-03T01:41:55.599Z,61.65
2016-06-03T01:42:55.633Z,61.75
2016-06-03T01:43:55.651Z,61.55
2016-06-03T01:44:55.686Z,61.36
2016-06-03T01:45:55.703Z,61.46
2016-06-03T01:46:55.722Z,61.55
2016-06-03T01:47:55.756Z,61.55
2016-06-03T01:48:55.789Z,61.46
2016-06-03T01:49:55.808Z,61.65
2016-06-03T01:50:55.827Z,61.65
2016-06-03T01:51:55.861Z,61.46
2016-06-03T01:52:55.880Z,61.46
2016-06-03T01:53:55.912Z,61.55
2016-06-03T01:54:55.930Z,61.46
2016-06-03T01:55:55.965Z,61.55
2016-06-03T01:56:55.983Z,61.55
2016-06-03T01:57:56.001Z,61.36
2016-06-03T01:58:56.020Z,61.46
2016-06-03T01:59:56.054Z,61.46
2016-06-03T02:00:56.088Z,61.08
2016-06-03T02:01:56.106Z,61.55
2016-06-03T02:02:56.141Z,61.08
2016-06-03T02:03:56.159Z,61.36
2016-06-03T02:04:56.176Z,61.36
2016-06-03T02:05:56.195Z,61.55
2016-06-03T02:06:56.229Z,61.36
2016-06-03T02:07:56.247Z,61.36
2016-06-03T02:08:56.126Z,61.55
2016-06-03T02:09:56.909Z,61.08
2016-06-03T02:10:56.474Z,61.36
2016-06-03T02:11:56.351Z,61.08
2016-06-03T02:12:56.229Z,61.55
2016-06-03T02:13:56.404Z,61.55
2016-06-03T02:14:56.439Z,61.55
2016-06-03T02:15:56.456Z,61.55
2016-06-03T02:16:56.475Z,61.55
2016-06-03T02:17:56.508Z,61.75
2016-06-03T02:18:56.527Z,61.65
2016-06-03T02:19:56.561Z,61.75
2016-06-03T02:20:56.579Z,61.46
2016-06-03T02:21:56.613Z,61.65
2016-06-03T02:22:56.475Z,61.65
2016-06-03T02:23:56.649Z,61.65
2016-06-03T02:24:56.621Z,61.75
2016-06-03T02:25:56.702Z,61.46
2016-06-03T02:26:56.735Z,61.65
2016-06-03T02:27:56.754Z,61.75
2016-06-03T02:28:56.772Z,61.65
2016-06-03T02:29:56.807Z,61.55
2016-06-03T02:30:56.825Z,61.75
2016-06-03T02:31:56.859Z,61.94
2016-06-03T02:32:56.877Z,61.36
2016-06-03T02:33:56.896Z,61.65
2016-06-03T02:34:56.930Z,61.75
2016-06-03T02:35:56.948Z,61.84
2016-06-03T02:36:56.982Z,62.04
2016-06-03T02:37:57.000Z,61.65
2016-06-03T02:38:57.065Z,61.46
2016-06-03T02:39:57.052Z,61.65
2016-06-03T02:40:57.086Z,61.46
2016-06-03T02:41:57.104Z,62.52
2016-06-03T02:42:57.123Z,61.65
2016-06-03T02:43:57.156Z,61.94
2016-06-03T02:44:57.175Z,61.75
2016-06-03T02:45:57.209Z,62.61
2016-06-03T02:46:57.243Z,61.55
2016-06-03T02:47:57.245Z,62.04
2016-06-03T02:48:57.279Z,61.84
2016-06-03T02:49:57.297Z,62.61
2016-06-03T02:50:57.331Z,61.84
2016-06-03T02:51:57.350Z,62.13
2016-06-03T02:52:57.383Z,62.32
2016-06-03T02:53:57.402Z,62.23
2016-06-03T02:54:57.655Z,62.23
2016-06-03T02:55:57.674Z,62.52
2016-06-03T02:56:57.488Z,62.52
2016-06-03T02:57:57.507Z,62.32
2016-06-03T02:58:57.525Z,62.42
2016-06-03T02:59:57.560Z,62.52
2016-06-03T03:00:57.593Z,62.32
2016-06-03T03:01:57.627Z,62.32
2016-06-03T03:02:57.629Z,62.23
2016-06-03T03:03:57.648Z,62.32
2016-06-03T03:04:57.526Z,62.13
2016-06-03T03:05:57.746Z,62.04
2016-06-03T03:06:57.735Z,62.23
2016-06-03T03:07:57.768Z,62.13
2016-06-03T03:08:57.614Z,62.32
2016-06-03T03:09:57.820Z,62.23
2016-06-03T03:10:57.839Z,62.32
2016-06-03T03:11:57.857Z,62.32
2016-06-03T03:12:57.907Z,62.32
2016-06-03T03:13:57.909Z,62.32
2016-06-03T03:14:57.943Z,62.13
2016-06-03T03:15:57.945Z,62.13
2016-06-03T03:16:57.980Z,62.01
2016-06-03T03:17:57.998Z,62.1
2016-06-03T03:18:58.031Z,62.42
2016-06-03T03:19:58.050Z,62.01
2016-06-03T03:20:58.083Z,61.91
2016-06-03T03:21:58.103Z,62.13
2016-06-03T03:22:58.137Z,62.13
2016-06-03T03:23:58.155Z,62.13
2016-06-03T03:24:58.236Z,62.13
2016-06-03T03:25:58.208Z,61.72
2016-06-03T03:26:58.241Z,62.13
2016-06-03T03:27:58.259Z,62.04
2016-06-03T03:28:58.277Z,62.1
2016-06-03T03:29:58.296Z,62.04
2016-06-03T03:30:58.329Z,62.13
2016-06-03T03:31:58.349Z,62.13
2016-06-03T03:32:58.382Z,62.32
2016-06-03T03:33:58.401Z,62.1
2016-06-03T03:34:58.434Z,62.29
2016-06-03T03:35:58.453Z,62.13
2016-06-03T03:36:58.486Z,62.13
2016-06-03T03:37:58.504Z,62.13
2016-06-03T03:38:58.523Z,62.13
2016-06-03T03:39:58.557Z,62.13
2016-06-03T03:40:58.795Z,61.94
2016-06-03T03:41:58.609Z,62.23
2016-06-03T03:42:58.628Z,62.32
2016-06-03T03:43:58.645Z,61.91
2016-06-03T03:44:58.681Z,62.13
2016-06-03T03:45:58.698Z,62.04
2016-06-03T03:46:58.732Z,62.1
2016-06-03T03:47:58.750Z,62.23
2016-06-03T03:48:58.784Z,62.01
2016-06-03T03:49:58.819Z,61.94
2016-06-03T03:50:58.822Z,62.01
2016-06-03T03:51:58.856Z,62.29
2016-06-03T03:52:58.873Z,62.13
2016-06-03T03:53:58.908Z,62.23
2016-06-03T03:54:59.816Z,62.32
2016-06-03T03:55:58.960Z,62.19
2016-06-03T03:56:58.977Z,62.23
2016-06-03T03:57:59.012Z,62.32
2016-06-03T03:58:59.030Z,62.1
2016-06-03T03:59:59.049Z,62.32
2016-06-03T04:00:59.099Z,62.52
2016-06-03T04:01:59.102Z,62.52
2016-06-03T04:02:59.135Z,62.29
2016-06-03T04:03:59.152Z,62.29
2016-06-03T04:04:59.171Z,62.42
2016-06-03T04:05:59.237Z,62.32
2016-06-03T04:06:59.223Z,62.19
2016-06-03T04:07:59.243Z,62.29
2016-06-03T04:08:59.276Z,62.19
2016-06-03T04:09:59.575Z,62.23
2016-06-03T04:10:59.609Z,62.19
2016-06-03T04:11:59.221Z,62.42
2016-06-03T04:12:59.396Z,62.39
2016-06-03T04:13:59.399Z,62.32
2016-06-03T04:14:59.432Z,62.32
2016-06-03T04:15:59.450Z,62.29
2016-06-03T04:16:59.469Z,62.29
2016-06-03T04:17:59.503Z,62.32
2016-06-03T04:18:59.522Z,62.13
2016-06-03T04:19:59.556Z,62.29
2016-06-03T04:20:59.573Z,62.04
2016-06-03T04:21:59.608Z,62.01
2016-06-03T04:22:59.626Z,62.13
2016-06-03T04:23:59.645Z,62.13
2016-06-03T04:24:59.678Z,61.94
2016-06-03T04:25:59.697Z,62.1
2016-06-03T04:26:59.730Z,62.23
2016-06-03T04:27:59.749Z,62.23
2016-06-03T04:28:59.783Z,62.19
2016-06-03T04:29:59.802Z,62.32
2016-06-03T04:30:59.819Z,62.19
2016-06-03T04:31:59.853Z,62.1
2016-06-03T04:32:59.872Z,62.71
2016-06-03T04:33:59.906Z,62.32
2016-06-03T04:34:59.924Z,62.52
2016-06-03T04:35:59.943Z,62.04
2016-06-03T04:36:59.820Z,62.13
2016-06-03T04:37:59.994Z,62.19
2016-06-03T04:39:00.028Z,62.32
2016-06-03T04:40:00.047Z,62.1
2016-06-03T04:41:00.081Z,62.32
2016-06-03T04:42:00.099Z,62.32
2016-06-03T04:43:00.117Z,62.23
2016-06-03T04:44:00.151Z,62.23
2016-06-03T04:45:00.170Z,62.29
2016-06-03T04:46:00.203Z,62.42
2016-06-03T04:47:00.223Z,62.32
2016-06-03T04:48:00.271Z,62.32
2016-06-03T04:49:00.273Z,62.32
2016-06-03T04:50:00.292Z,62.61
2016-06-03T04:51:00.326Z,61.94
2016-06-03T04:52:00.345Z,62.01
2016-06-03T04:53:00.378Z,61.94
2016-06-03T04:54:00.397Z,62.29
2016-06-03T04:55:00.431Z,62.13
2016-06-03T04:56:00.450Z,62.04
2016-06-03T04:57:00.467Z,62.32
2016-06-03T04:58:00.502Z,62.13
2016-06-03T04:59:00.520Z,62.13
2016-06-03T05:00:00.553Z,62.13
2016-06-03T05:01:00.571Z,62.1
2016-06-03T05:02:00.606Z,62.13
2016-06-03T05:03:00.624Z,62.13
2016-06-03T05:04:00.643Z,62.13
2016-06-03T05:05:00.676Z,62.32
2016-06-03T05:06:00.694Z,62.32
2016-06-03T05:07:00.729Z,62.23
2016-06-03T05:08:00.747Z,62.13
2016-06-03T05:09:00.781Z,62.13
2016-06-03T05:10:00.643Z,62.13
2016-06-03T05:11:00.818Z,62.32
2016-06-03T05:12:00.852Z,62.13
2016-06-03T05:13:00.870Z,62.32
2016-06-03T05:14:00.888Z,62.23
2016-06-03T05:15:00.923Z,62.13
2016-06-03T05:16:00.940Z,62.52
2016-06-03T05:17:00.973Z,62.42
2016-06-03T05:18:01.008Z,62.13
2016-06-03T05:19:01.011Z,62.42
2016-06-03T05:20:01.045Z,62.42
2016-06-03T05:21:01.078Z,61.55
2016-06-03T05:22:01.097Z,62.42
2016-06-03T05:23:01.115Z,62.61
2016-06-03T05:24:01.150Z,62.13
2016-06-03T05:25:01.542Z,61.75
2016-06-03T05:26:01.217Z,62.04
2016-06-03T05:27:01.220Z,61.55
2016-06-03T05:28:01.239Z,61.55
2016-06-03T05:29:01.272Z,61.84
2016-06-03T05:30:01.291Z,61.75
2016-06-03T05:31:01.325Z,61.65
2016-06-03T05:32:01.344Z,61.46
2016-06-03T05:33:01.376Z,61.46
2016-06-03T05:34:01.394Z,61.17
2016-06-03T05:35:01.429Z,61.55
2016-06-03T05:36:01.447Z,61.08
2016-06-03T05:37:01.465Z,61.55
2016-06-03T05:38:01.499Z,61.17
2016-06-03T05:39:01.518Z,61.08
2016-06-03T05:40:01.615Z,61.55
2016-06-03T05:41:02.226Z,61.46
2016-06-03T05:42:01.604Z,61.55
2016-06-03T05:43:01.623Z,61.65
2016-06-03T05:44:01.657Z,61.55
2016-06-03T05:45:01.674Z,61.46
2016-06-03T05:46:01.709Z,61.65
2016-06-03T05:47:01.712Z,61.36
2016-06-03T05:48:01.746Z,61.46
2016-06-03T05:49:01.764Z,61.65
2016-06-03T05:50:01.798Z,61.55
2016-06-03T05:51:01.816Z,61.46
2016-06-03T05:52:01.834Z,61.36
2016-06-03T05:53:01.711Z,61.46
2016-06-03T05:54:01.902Z,61.75
2016-06-03T05:55:02.155Z,61.55
2016-06-03T05:56:01.938Z,61.55
2016-06-03T05:57:01.972Z,61.46
2016-06-03T05:58:01.991Z,61.65
2016-06-03T05:59:02.025Z,61.46
2016-06-03T06:00:02.043Z,61.46
2016-06-03T06:01:02.077Z,61.36
2016-06-03T06:02:02.095Z,61.46
2016-06-03T06:03:02.130Z,61.36
2016-06-03T06:04:02.147Z,61.65
2016-06-03T06:05:02.166Z,61.65
2016-06-03T06:06:02.185Z,61.46
2016-06-03T06:07:02.219Z,61.36
2016-06-03T06:08:02.252Z,61.55
2016-06-03T06:09:02.271Z,61.46
2016-06-03T06:10:02.320Z,61.17
2016-06-03T06:11:02.324Z,61.17
2016-06-03T06:12:02.340Z,61.55
2016-06-03T06:13:02.359Z,61.55
2016-06-03T06:14:02.393Z,61.46
2016-06-03T06:15:02.412Z,61.46
2016-06-03T06:16:02.445Z,61.46
2016-06-03T06:17:02.464Z,61.17
2016-06-03T06:18:02.498Z,61.17
2016-06-03T06:19:02.516Z,61.36
2016-06-03T06:20:02.550Z,61.55
2016-06-03T06:21:02.568Z,60.88
2016-06-03T06:22:02.587Z,61.08
2016-06-03T06:23:02.621Z,60.88
2016-06-03T06:24:02.639Z,60.88
2016-06-03T06:25:02.704Z,61.17
2016-06-03T06:26:02.707Z,61.08
2016-06-03T06:27:02.726Z,60.98
2016-06-03T06:28:02.758Z,60.98
2016-06-03T06:29:02.761Z,60.98
2016-06-03T06:30:02.795Z,60.98
2016-06-03T06:31:02.814Z,61.17
2016-06-03T06:32:02.847Z,61.27
2016-06-03T06:33:02.866Z,61.36
2016-06-03T06:34:02.900Z,61.17
2016-06-03T06:35:02.919Z,60.98
2016-06-03T06:36:02.952Z,60.69
2016-06-03T06:37:02.971Z,61.17
2016-06-03T06:38:02.989Z,60.88
2016-06-03T06:39:03.023Z,60.98
2016-06-03T06:40:02.886Z,61.27
2016-06-03T06:41:03.107Z,60.98
2016-06-03T06:42:03.093Z,60.63
2016-06-03T06:43:03.127Z,61.11
2016-06-03T06:44:03.146Z,60.5
2016-06-03T06:45:03.164Z,60.63
2016-06-03T06:46:03.213Z,61.27
2016-06-03T06:47:03.240Z,60.69
2016-06-03T06:48:03.302Z,61.08
2016-06-03T06:49:03.347Z,61.11
2016-06-03T06:50:03.409Z,61.2
2016-06-03T06:51:03.454Z,60.5
2016-06-03T06:52:03.500Z,60.72
2016-06-03T06:53:03.528Z,60.43
2016-06-03T06:54:03.556Z,60.63
2016-06-03T06:55:03.601Z,60.43
2016-06-03T06:56:03.958Z,60.72
2016-06-03T06:57:03.651Z,60.63
2016-06-03T06:58:03.688Z,60.43
2016-06-03T06:59:03.710Z,60.63
2016-06-03T07:00:03.748Z,60.34
2016-06-03T07:01:03.770Z,60.34
2016-06-03T07:02:03.805Z,60.63
2016-06-03T07:03:03.825Z,60.63
2016-06-03T07:04:03.859Z,60.53
2016-06-03T07:05:03.879Z,60.63
2016-06-03T07:06:03.742Z,60.63
2016-06-03T07:07:03.933Z,60.63
2016-06-03T07:08:03.952Z,60.14
2016-06-03T07:09:03.987Z,60.24
2016-06-03T07:10:04.850Z,60.24
2016-06-03T07:11:04.057Z,60.34
2016-06-03T07:12:04.059Z,60.24
2016-06-03T07:13:04.093Z,60.24
2016-06-03T07:14:04.112Z,60.34
2016-06-03T07:15:04.145Z,60.34
2016-06-03T07:16:04.164Z,60.14
2016-06-03T07:17:04.181Z,60.43
2016-06-03T07:18:04.216Z,59.47
2016-06-03T07:19:04.234Z,59.76
2016-06-03T07:20:04.267Z,59.66
2016-06-03T07:21:04.286Z,59.86
2016-06-03T07:22:04.320Z,59.76
2016-06-03T07:23:04.339Z,60.05
2016-06-03T07:24:04.357Z,59.86
2016-06-03T07:25:04.892Z,59.76
2016-06-03T07:26:04.409Z,60.24
2016-06-03T07:27:04.444Z,59.86
2016-06-03T07:28:04.477Z,60.05
2016-06-03T07:29:04.480Z,60.24
2016-06-03T07:30:04.514Z,59.86
2016-06-03T07:31:04.533Z,60.05
2016-06-03T07:32:04.566Z,60.24
2016-06-03T07:33:04.585Z,59.76
2016-06-03T07:34:04.618Z,59.66
2016-06-03T07:35:04.637Z,59.66
2016-06-03T07:36:04.655Z,59.95
2016-06-03T07:37:04.705Z,59.76
2016-06-03T07:38:04.707Z,59.86
2016-06-03T07:39:04.741Z,59.57
2016-06-03T07:40:04.776Z,59.47
2016-06-03T07:41:04.794Z,59.66
2016-06-03T07:42:04.827Z,59.47
2016-06-03T07:43:04.845Z,59.57
2016-06-03T07:44:04.864Z,59.66
2016-06-03T07:45:04.898Z,59.76
2016-06-03T07:46:04.917Z,59.66
2016-06-03T07:47:04.934Z,59.76
2016-06-03T07:48:04.968Z,59.57
2016-06-03T07:49:04.987Z,59.57
2016-06-03T07:50:05.020Z,59.19
2016-06-03T07:51:05.039Z,59.28
2016-06-03T07:52:05.073Z,59.09
2016-06-03T07:53:05.091Z,59.28
2016-06-03T07:54:05.125Z,59.28
2016-06-03T07:55:05.925Z,59.09
2016-06-03T07:56:05.178Z,59.28
2016-06-03T07:57:05.196Z,59.09
2016-06-03T07:58:05.230Z,59.38
2016-06-03T07:59:05.247Z,59.5
2016-06-03T08:00:05.282Z,59.66
2016-06-03T08:01:05.300Z,59.69
2016-06-03T08:02:05.318Z,59.69
2016-06-03T08:03:05.353Z,59.12
2016-06-03T08:04:05.371Z,59.12
2016-06-03T08:05:05.389Z,59.12
2016-06-03T08:06:05.423Z,59.31
2016-06-03T08:07:05.457Z,60.66
2016-06-03T08:08:05.476Z,61.14
2016-06-03T08:09:05.524Z,61.14
2016-06-03T08:10:05.527Z,62.19
2016-06-03T08:11:05.562Z,62.68
2016-06-03T08:12:05.580Z,63.06
2016-06-03T08:13:05.598Z,62.77
2016-06-03T08:14:05.632Z,62.87
2016-06-03T08:15:05.651Z,62.48
2016-06-03T08:16:05.684Z,62.96
2016-06-03T08:17:05.750Z,62.29
2016-06-03T08:18:05.737Z,62.29
2016-06-03T08:19:05.755Z,63.06
2016-06-03T08:20:05.789Z,62.96
2016-06-03T08:21:05.807Z,62.87
2016-06-03T08:22:05.825Z,62.87
2016-06-03T08:23:05.859Z,62.96
2016-06-03T08:24:05.894Z,62.96
2016-06-03T08:25:06.240Z,62.71
2016-06-03T08:26:06.086Z,62.99
2016-06-03T08:27:05.964Z,62.9
2016-06-03T08:28:05.983Z,62.8
2016-06-03T08:29:06.016Z,62.9
2016-06-03T08:30:06.035Z,62.99
2016-06-03T08:31:06.069Z,62.99
2016-06-03T08:32:06.086Z,62.32
2016-06-03T08:33:06.121Z,62.71
2016-06-03T08:34:06.138Z,62.8
2016-06-03T08:35:06.174Z,62.61
2016-06-03T08:36:06.191Z,62.13
2016-06-03T08:37:06.225Z,62.32
2016-06-03T08:38:06.260Z,62.13
2016-06-03T08:39:06.262Z,61.84
2016-06-03T08:40:06.296Z,61.68
2016-06-03T08:41:06.314Z,61.84
2016-06-03T08:42:06.348Z,61.65
2016-06-03T08:43:06.398Z,61.46
2016-06-03T08:44:06.400Z,61.77
2016-06-03T08:45:06.419Z,61.49
2016-06-03T08:46:06.453Z,61.77
2016-06-03T08:47:06.470Z,61.58
2016-06-03T08:48:06.505Z,61.68
2016-06-03T08:49:06.523Z,61.68
2016-06-03T08:50:06.557Z,61.77
2016-06-03T08:51:06.576Z,61.77
2016-06-03T08:52:06.609Z,61.77
2016-06-03T08:53:06.627Z,61.77
2016-06-03T08:54:06.646Z,61
2016-06-03T08:55:07.555Z,61.19
2016-06-03T08:56:06.714Z,61.29
2016-06-03T08:57:06.576Z,61.19
2016-06-03T08:58:06.766Z,61.1
2016-06-03T08:59:06.628Z,60.91
2016-06-03T09:00:06.803Z,61
2016-06-03T09:01:06.836Z,60.91
2016-06-03T09:02:06.855Z,61
2016-06-03T09:03:06.889Z,61.19
2016-06-03T09:04:06.908Z,61.19
2016-06-03T09:05:06.942Z,60.52
2016-06-03T09:06:06.991Z,61.1
2016-06-03T09:07:06.993Z,61.1
2016-06-03T09:08:07.058Z,61.19
2016-06-03T09:09:07.046Z,60.52
2016-06-03T09:10:07.096Z,60.65
2016-06-03T09:11:07.098Z,60.75
2016-06-03T09:12:07.116Z,60.81
2016-06-03T09:13:07.151Z,60.84
2016-06-03T09:14:07.185Z,60.75
2016-06-03T09:15:07.202Z,60.94
2016-06-03T09:16:07.549Z,60.46
2016-06-03T09:17:07.255Z,60.75
2016-06-03T09:18:07.290Z,60.65
2016-06-03T09:19:07.307Z,60.65
2016-06-03T09:20:07.326Z,60.75
2016-06-03T09:21:07.375Z,60.46
2016-06-03T09:22:07.378Z,59.78
2016-06-03T09:23:07.412Z,60.07
2016-06-03T09:24:07.431Z,59.97
2016-06-03T09:25:07.464Z,60.17
2016-06-03T09:26:07.497Z,59.59
2016-06-03T09:27:07.517Z,59.78
2016-06-03T09:28:07.534Z,59.69
2016-06-03T09:29:07.568Z,59.97
2016-06-03T09:30:07.603Z,59.88
2016-06-03T09:31:07.620Z,59.78
2016-06-03T09:32:07.669Z,59.88
2016-06-03T09:33:07.672Z,60.27
2016-06-03T09:34:07.708Z,60.17
2016-06-03T09:35:07.725Z,59.88
2016-06-03T09:36:07.759Z,60.27
2016-06-03T09:37:07.777Z,60.65
2016-06-03T09:38:07.796Z,60.3
2016-06-03T09:39:07.830Z,60.17
2016-06-03T09:40:08.176Z,60.36
2016-06-03T09:41:07.882Z,60.65
2016-06-03T09:42:07.900Z,60.68
2016-06-03T09:43:07.950Z,60.77
2016-06-03T09:44:07.953Z,60.49
2016-06-03T09:45:07.987Z,60.58
2016-06-03T09:46:08.020Z,60.3
2016-06-03T09:47:08.039Z,60.39
2016-06-03T09:48:08.072Z,60.77
2016-06-03T09:49:08.091Z,60.2
2016-06-03T09:50:08.125Z,60.68
2016-06-03T09:51:08.143Z,60.39
2016-06-03T09:52:08.177Z,60.3
2016-06-03T09:53:08.195Z,60.3
2016-06-03T09:54:08.229Z,60.58
2016-06-03T09:55:08.576Z,60.58
2016-06-03T09:56:08.281Z,60.68
2016-06-03T09:57:08.300Z,60.3
2016-06-03T09:58:08.333Z,60.3
2016-06-03T09:59:08.352Z,59.81
2016-06-03T10:00:08.387Z,59.91
2016-06-03T10:01:08.405Z,59.94
2016-06-03T10:02:08.439Z,60
2016-06-03T10:03:08.472Z,60.03
2016-06-03T10:04:08.506Z,59.75
2016-06-03T10:05:08.508Z,59.75
2016-06-03T10:06:08.544Z,60.42
2016-06-03T10:07:08.592Z,60.13
2016-06-03T10:08:08.594Z,59.94
2016-06-03T10:09:08.630Z,59.94
2016-06-03T10:10:08.663Z,59.75
2016-06-03T10:11:08.682Z,59.36
2016-06-03T10:12:08.700Z,59.55
2016-06-03T10:13:08.593Z,59.65
2016-06-03T10:14:08.752Z,59.65
2016-06-03T10:15:08.785Z,59.17
2016-06-03T10:16:08.804Z,59.27
2016-06-03T10:17:08.838Z,59.17
2016-06-03T10:18:08.872Z,58.88
2016-06-03T10:19:08.890Z,58.49
2016-06-03T10:20:08.924Z,58.3
2016-06-03T10:21:08.959Z,58.78
2016-06-03T10:22:08.961Z,58.78
2016-06-03T10:23:09.010Z,58.88
2016-06-03T10:24:09.028Z,57.92
2016-06-03T10:25:09.672Z,58.11
2016-06-03T10:26:09.082Z,58.11
2016-06-03T10:27:09.115Z,58.4
2016-06-03T10:28:09.134Z,58.3
2016-06-03T10:29:09.167Z,58.49
2016-06-03T10:30:09.186Z,58.49
2016-06-03T10:31:09.064Z,58.01
2016-06-03T10:32:09.238Z,57.72
2016-06-03T10:33:09.272Z,58.11
2016-06-03T10:34:09.305Z,57.92
2016-06-03T10:35:09.339Z,58.2
2016-06-03T10:36:12.358Z,57.82
2016-06-03T10:37:09.376Z,58.2
2016-06-03T10:38:09.411Z,57.34
2016-06-03T10:39:09.444Z,57.43
2016-06-03T10:40:09.463Z,57.53
2016-06-03T10:41:09.340Z,57.53
2016-06-03T10:42:09.515Z,57.53
2016-06-03T10:43:09.564Z,57.53
2016-06-03T10:44:09.566Z,57.43
2016-06-03T10:45:09.601Z,57.82
2016-06-03T10:46:09.635Z,57.82
2016-06-03T10:47:09.654Z,57.62
2016-06-03T10:48:09.984Z,57.24
2016-06-03T10:49:09.721Z,57.24
2016-06-03T10:50:09.740Z,57.43
2016-06-03T10:51:09.774Z,57.43
2016-06-03T10:52:09.792Z,57.92
2016-06-03T10:53:09.825Z,57.92
2016-06-03T10:54:09.844Z,57.34
2016-06-03T10:55:10.237Z,56.66
2016-06-03T10:56:10.178Z,57.14
2016-06-03T10:57:09.946Z,57.72
2016-06-03T10:58:09.964Z,57.43
2016-06-03T10:59:09.982Z,56.66
2016-06-03T11:00:10.016Z,57.05
2016-06-03T11:01:10.034Z,56.95
2016-06-03T11:02:09.928Z,57.14
2016-06-03T11:03:10.087Z,57.05
2016-06-03T11:04:10.120Z,56.85
2016-06-03T11:05:10.186Z,57.14
2016-06-03T11:06:10.172Z,56.76
2016-06-03T11:07:10.207Z,57.14
2016-06-03T11:08:10.241Z,57.05
2016-06-03T11:09:10.259Z,57.14
2016-06-03T11:10:10.308Z,57.05
2016-06-03T11:11:10.655Z,57.92
2016-06-03T11:12:10.346Z,57.53
2016-06-03T11:13:10.363Z,57.43
2016-06-03T11:14:10.397Z,57.53
2016-06-03T11:15:10.415Z,58.4
2016-06-03T11:16:10.449Z,58.78
2016-06-03T11:17:10.484Z,59.17
2016-06-03T11:18:10.502Z,59.45
2016-06-03T11:19:10.365Z,60.61
2016-06-03T11:20:10.632Z,59.84
2016-06-03T11:21:10.588Z,61
2016-06-03T11:22:10.623Z,60.71
2016-06-03T11:23:10.640Z,60.71
2016-06-03T11:24:10.674Z,60.61
2016-06-03T11:25:11.505Z,61.38
2016-06-03T11:26:10.571Z,60.42
2016-06-03T11:27:10.746Z,61
2016-06-03T11:28:10.764Z,60.8
2016-06-03T11:29:10.798Z,60.9
2016-06-03T11:30:10.831Z,60.42
2016-06-03T11:31:10.850Z,60.55
2016-06-03T11:32:10.883Z,60.61
2016-06-03T11:33:10.902Z,60.61
2016-06-03T11:34:10.936Z,60.55
2016-06-03T11:35:10.970Z,59.97
2016-06-03T11:36:10.989Z,59.78
2016-06-03T11:37:11.006Z,59.97
2016-06-03T11:38:11.041Z,59.87
2016-06-03T11:39:11.075Z,59.48
2016-06-03T11:40:11.077Z,59.68
2016-06-03T11:41:11.674Z,59.68
2016-06-03T11:42:11.161Z,59.39
2016-06-03T11:43:11.210Z,59
2016-06-03T11:44:11.057Z,59
2016-06-03T11:45:11.246Z,58.52
2016-06-03T11:46:11.265Z,59.1
2016-06-03T11:47:11.283Z,59.1
2016-06-03T11:48:11.318Z,58.62
2016-06-03T11:49:11.336Z,58.91
2016-06-03T11:50:11.369Z,58.81
2016-06-03T11:51:11.404Z,58.72
2016-06-03T11:52:11.437Z,58.52
2016-06-03T11:53:11.456Z,58.91
2016-06-03T11:54:11.473Z,58.81
2016-06-03T11:55:11.507Z,58.62
2016-06-03T11:56:11.542Z,57.94
2016-06-03T11:57:11.560Z,58.33
2016-06-03T11:58:11.595Z,58.33
2016-06-03T11:59:11.612Z,58.23
2016-06-03T12:00:11.646Z,58.52
2016-06-03T12:01:11.665Z,58.33
2016-06-03T12:02:11.698Z,58.33
2016-06-03T12:03:11.733Z,58.14
2016-06-03T12:04:11.750Z,58.33
2016-06-03T12:05:11.785Z,58.04
2016-06-03T12:06:11.819Z,58.33
2016-06-03T12:07:11.836Z,58.04
2016-06-03T12:08:11.855Z,58.33
2016-06-03T12:09:11.889Z,58.33
2016-06-03T12:10:12.204Z,58.33
2016-06-03T12:11:12.598Z,58.72
2016-06-03T12:12:11.975Z,59
2016-06-03T12:13:11.994Z,58.81
2016-06-03T12:14:12.028Z,58.17
2016-06-03T12:15:12.093Z,58.65
2016-06-03T12:16:12.080Z,58.26
2016-06-03T12:17:12.129Z,58.36
2016-06-03T12:18:12.133Z,58.36
2016-06-03T12:19:12.166Z,58.26
2016-06-03T12:20:12.185Z,58.55
2016-06-03T12:21:12.218Z,58.07
2016-06-03T12:22:12.252Z,58.07
2016-06-03T12:23:12.271Z,58.26
2016-06-03T12:24:12.305Z,57.68
2016-06-03T12:25:12.463Z,57.97
2016-06-03T12:26:12.357Z,57.87
2016-06-03T12:27:12.375Z,57.87
2016-06-03T12:28:12.409Z,57.87
2016-06-03T12:29:12.428Z,57.78
2016-06-03T12:30:12.462Z,57.97
2016-06-03T12:31:12.495Z,57.49
2016-06-03T12:32:12.514Z,57.78
2016-06-03T12:33:12.548Z,57.59
2016-06-03T12:34:12.567Z,57.29
2016-06-03T12:35:12.600Z,57.59
2016-06-03T12:36:12.634Z,57.59
2016-06-03T12:37:12.652Z,57.39
2016-06-03T12:38:12.686Z,57.39
2016-06-03T12:39:12.720Z,57.49
2016-06-03T12:40:13.019Z,57.59
2016-06-03T12:41:12.772Z,57.68
2016-06-03T12:42:12.806Z,57.97
2016-06-03T12:43:12.825Z,57.78
2016-06-03T12:44:12.889Z,57.59
2016-06-03T12:45:12.877Z,57.59
2016-06-03T12:46:12.911Z,57.29
2016-06-03T12:47:12.929Z,57.42
2016-06-03T12:48:12.963Z,57.23
2016-06-03T12:49:12.825Z,56.84
2016-06-03T12:50:13.015Z,57.23
2016-06-03T12:51:12.893Z,57.04
2016-06-03T12:52:13.068Z,57.14
2016-06-03T12:53:13.101Z,56.94
2016-06-03T12:54:13.120Z,56.94
2016-06-03T12:55:13.168Z,59.45